createdAt,value
2022-12-03T00:02:12.183Z,77.12
2022-12-03T00:05:20.966Z,76.99
2022-12-03T00:08:30.097Z,76.73
2022-12-03T00:11:32.612Z,76.58
2022-12-03T00:14:48.026Z,76.80
2022-12-03T00:17:56.960Z,76.91
2022-12-03T00:21:05.951Z,76.54
2022-12-03T00:24:08.744Z,76.85
2022-12-03T00:27:18.048Z,76.70
2022-12-03T00:30:20.401Z,76.88
2022-12-03T00:33:30.072Z,76.65
2022-12-03T00:36:32.247Z,76.55
2022-12-03T00:39:41.152Z,76.71
2022-12-03T00:42:44.411Z,76.18
2022-12-03T00:45:53.000Z,76.80
2022-12-03T00:48:56.207Z,76.77
2022-12-03T00:52:05.037Z,77.03
2022-12-03T00:55:07.967Z,77.63
2022-12-03T00:58:17.119Z,77.51
2022-12-03T01:01:23.279Z,77.77
2022-12-03T01:04:32.181Z,77.17
2022-12-03T01:07:34.295Z,76.06
2022-12-03T01:10:43.084Z,77.35
2022-12-03T01:13:51.343Z,76.90
2022-12-03T01:16:55.040Z,76.62
2022-12-03T01:19:56.836Z,76.83
2022-12-03T01:23:06.027Z,77.27
2022-12-03T01:26:08.196Z,77.72
2022-12-03T01:29:17.997Z,78.07
2022-12-03T01:32:28.093Z,77.71
2022-12-03T01:35:30.304Z,78.09
2022-12-03T01:38:38.975Z,77.13
2022-12-03T01:41:44.382Z,78.19
2022-12-03T01:44:53.223Z,78.18
2022-12-03T01:47:55.397Z,78.79
2022-12-03T01:51:05.064Z,79.39
2022-12-03T01:54:17.355Z,78.53
2022-12-03T01:57:22.048Z,78.64
2022-12-03T02:00:36.013Z,78.96
2022-12-03T02:03:38.302Z,78.41
2022-12-03T02:06:47.031Z,78.61
2022-12-03T02:09:56.389Z,79.70
2022-12-03T02:13:10.375Z,78.47
2022-12-03T02:16:18.993Z,78.28
2022-12-03T02:19:44.863Z,78.10
2022-12-03T02:23:02.941Z,78.32
2022-12-03T02:26:06.332Z,79.04
2022-12-03T02:29:14.953Z,78.08
2022-12-03T02:32:24.043Z,77.75
2022-12-03T02:35:29.325Z,77.14
2022-12-03T02:38:42.046Z,77.42
2022-12-03T02:42:02.403Z,77.37
2022-12-03T02:45:13.938Z,77.94
2022-12-03T02:48:21.220Z,77.66
2022-12-03T02:51:30.007Z,77.85
2022-12-03T02:54:38.957Z,77.38
2022-12-03T02:57:51.085Z,76.32
2022-12-03T03:00:55.591Z,75.58
2022-12-03T03:04:07.086Z,75.34
2022-12-03T03:07:10.256Z,74.86
2022-12-03T03:10:22.086Z,74.87
2022-12-03T03:13:24.707Z,75.12
2022-12-03T03:16:35.180Z,75.28
2022-12-03T03:19:38.283Z,73.56
2022-12-03T03:22:48.986Z,72.46
2022-12-03T03:26:10.074Z,73.55
2022-12-03T03:29:18.940Z,73.86
2022-12-03T03:32:29.138Z,72.35
2022-12-03T03:35:32.281Z,70.42
2022-12-03T03:38:42.064Z,69.54
2022-12-03T03:41:45.350Z,68.79
2022-12-03T03:44:47.982Z,68.38
2022-12-03T03:47:51.426Z,65.38
2022-12-03T03:51:00.923Z,64.94
2022-12-03T03:54:05.394Z,65.40
2022-12-03T03:57:13.928Z,62.63
2022-12-03T04:00:22.945Z,62.63
2022-12-03T04:03:25.364Z,61.07
2022-12-03T04:06:35.984Z,60.95
2022-12-03T04:09:45.069Z,62.78
2022-12-03T04:12:56.440Z,62.04
2022-12-03T04:16:05.079Z,61.52
2022-12-03T04:19:07.228Z,60.25
2022-12-03T04:22:35.003Z,58.91
2022-12-03T04:25:55.442Z,61.11
2022-12-03T04:29:03.960Z,60.79
2022-12-03T04:32:25.381Z,59.73
2022-12-03T04:35:51.952Z,59.07
2022-12-03T04:39:00.910Z,59.31
2022-12-03T04:42:10.231Z,59.65
2022-12-03T04:45:19.064Z,59.05
2022-12-03T04:48:21.308Z,59.56
2022-12-03T04:51:31.016Z,60.04
2022-12-03T04:54:34.769Z,61.77
2022-12-03T04:57:44.990Z,60.15
2022-12-03T05:00:47.462Z,59.64
2022-12-03T05:03:55.907Z,57.96
2022-12-03T05:06:58.332Z,59.60
2022-12-03T05:10:08.080Z,60.77
2022-12-03T05:13:10.326Z,61.14
2022-12-03T05:16:20.069Z,60.18
2022-12-03T05:19:22.349Z,60.39
2022-12-03T05:22:32.109Z,59.53
2022-12-03T05:25:34.369Z,61.43
2022-12-03T05:28:43.904Z,60.33
2022-12-03T05:31:46.293Z,58.58
2022-12-03T05:34:55.274Z,58.35
2022-12-03T05:37:57.460Z,57.12
2022-12-03T05:41:05.884Z,57.32
2022-12-03T05:44:08.378Z,55.28
2022-12-03T05:47:17.011Z,54.05
2022-12-03T05:50:26.909Z,54.92
2022-12-03T05:53:49.007Z,54.47
2022-12-03T05:56:58.921Z,55.05
2022-12-03T06:00:08.097Z,51.47
2022-12-03T06:03:12.428Z,53.89
2022-12-03T06:06:21.050Z,52.57
2022-12-03T06:09:09.953Z,51.44
2022-12-03T06:12:01.985Z,53.46
2022-12-03T06:14:57.010Z,53.76
2022-12-03T06:17:45.907Z,50.62
2022-12-03T06:20:36.162Z,53.33
2022-12-03T06:23:24.996Z,51.88
2022-12-03T06:26:07.320Z,51.03
2022-12-03T06:28:56.921Z,50.44
2022-12-03T06:31:39.348Z,50.40
2022-12-03T06:34:28.016Z,52.29
2022-12-03T06:37:10.261Z,50.47
2022-12-03T06:39:59.010Z,51.49
2022-12-03T06:42:41.309Z,50.10
2022-12-03T06:45:29.971Z,48.95
2022-12-03T06:48:12.331Z,48.33
2022-12-03T06:51:00.945Z,47.77
2022-12-03T06:53:43.348Z,49.33
2022-12-03T06:56:36.754Z,50.34
2022-12-03T06:59:26.940Z,47.34
2022-12-03T07:02:17.119Z,47.51
2022-12-03T07:04:59.353Z,47.96
2022-12-03T07:07:48.168Z,47.45
2022-12-03T07:10:30.356Z,45.83
2022-12-03T07:13:19.053Z,46.85
2022-12-03T07:16:13.956Z,48.56
2022-12-03T07:19:03.969Z,48.68
2022-12-03T07:21:46.409Z,46.75
2022-12-03T07:24:34.964Z,46.65
2022-12-03T07:27:23.939Z,47.11
2022-12-03T07:30:14.973Z,44.72
2022-12-03T07:32:57.286Z,47.89
2022-12-03T07:35:46.034Z,45.78
2022-12-03T07:38:35.032Z,46.94
2022-12-03T07:41:24.263Z,46.58
2022-12-03T07:44:10.854Z,46.22
2022-12-03T07:47:03.225Z,42.58
2022-12-03T07:49:45.234Z,42.95
2022-12-03T07:52:34.077Z,38.04
2022-12-03T07:55:17.305Z,36.16
2022-12-03T07:58:06.005Z,39.30
2022-12-03T08:00:54.949Z,40.51
2022-12-03T08:03:44.071Z,40.12
2022-12-03T08:06:26.326Z,39.16
2022-12-03T08:09:16.400Z,40.32
2022-12-03T08:11:58.362Z,41.62
2022-12-03T08:14:47.869Z,40.82
2022-12-03T08:17:37.919Z,41.10
2022-12-03T08:20:22.820Z,40.79
2022-12-03T08:23:12.026Z,42.00
2022-12-03T08:25:54.672Z,41.73
2022-12-03T08:28:43.995Z,41.34
2022-12-03T08:31:32.881Z,42.80
2022-12-03T08:34:32.010Z,43.32
2022-12-03T08:37:21.006Z,42.16
2022-12-03T08:40:09.905Z,43.72
2022-12-03T08:42:58.881Z,44.01
2022-12-03T08:45:44.459Z,43.90
2022-12-03T08:48:44.008Z,43.18
2022-12-03T08:51:32.283Z,43.97
2022-12-03T08:54:28.002Z,43.23
2022-12-03T08:57:35.290Z,44.67
2022-12-03T09:00:30.965Z,43.11
2022-12-03T09:03:18.287Z,42.95
2022-12-03T09:06:07.045Z,43.30
2022-12-03T09:08:49.251Z,44.85
2022-12-03T09:11:38.039Z,42.47
2022-12-03T09:14:24.575Z,44.40
2022-12-03T09:17:13.061Z,42.90
2022-12-03T09:19:55.599Z,41.30
2022-12-03T09:22:44.961Z,41.74
2022-12-03T09:25:27.244Z,41.89
2022-12-03T09:28:16.966Z,42.77
2022-12-03T09:31:07.011Z,43.16
2022-12-03T09:34:01.962Z,44.29
2022-12-03T09:36:45.233Z,42.32
2022-12-03T09:39:33.880Z,42.67
2022-12-03T09:42:24.025Z,43.18
2022-12-03T09:45:06.258Z,43.00
2022-12-03T09:47:57.411Z,40.97
2022-12-03T09:50:39.429Z,40.45
2022-12-03T09:53:31.095Z,40.99
2022-12-03T09:56:13.239Z,41.35
2022-12-03T09:59:02.093Z,40.80
2022-12-03T10:01:44.448Z,39.71
2022-12-03T10:04:33.080Z,39.86
2022-12-03T10:07:41.038Z,38.11
2022-12-03T10:10:26.246Z,36.97
2022-12-03T10:13:36.910Z,39.16
2022-12-03T10:16:47.371Z,37.60
2022-12-03T10:19:50.974Z,37.75
2022-12-03T10:22:53.533Z,41.26
2022-12-03T10:26:11.891Z,40.16
2022-12-03T10:29:21.305Z,40.62
2022-12-03T10:32:29.883Z,45.00
2022-12-03T10:35:48.907Z,44.67
2022-12-03T10:38:51.354Z,46.22
2022-12-03T10:42:02.000Z,45.19
2022-12-03T10:45:27.945Z,47.75
2022-12-03T10:48:30.247Z,46.78
2022-12-03T10:51:39.005Z,48.31
2022-12-03T10:54:41.195Z,48.97
2022-12-03T10:58:01.869Z,49.29
2022-12-03T11:01:15.088Z,51.61
2022-12-03T11:04:27.969Z,52.19
2022-12-03T11:07:38.021Z,52.85
2022-12-03T11:10:40.131Z,54.02
2022-12-03T11:13:48.970Z,55.75
2022-12-03T11:17:06.974Z,56.80
2022-12-03T11:20:34.660Z,58.17
2022-12-03T11:23:26.024Z,57.46
2022-12-03T11:26:39.353Z,57.10
2022-12-03T11:29:31.039Z,57.34
2022-12-03T11:32:40.637Z,56.87
2022-12-03T11:35:52.895Z,58.13
2022-12-03T11:38:56.572Z,58.08
2022-12-03T11:41:49.962Z,59.58
2022-12-03T11:44:40.992Z,59.01
2022-12-03T11:47:25.475Z,60.45
2022-12-03T11:50:39.098Z,60.48
2022-12-03T11:53:41.887Z,60.90
2022-12-03T11:56:37.238Z,61.62
2022-12-03T11:59:23.954Z,62.59
2022-12-03T12:02:28.328Z,62.32
2022-12-03T12:05:30.856Z,62.80
2022-12-03T12:08:20.728Z,63.45
2022-12-03T12:11:09.924Z,63.64
2022-12-03T12:13:55.624Z,64.03
2022-12-03T12:17:00.875Z,61.67
2022-12-03T12:19:54.364Z,62.50
2022-12-03T12:22:38.399Z,63.14
2022-12-03T12:25:50.838Z,63.54
2022-12-03T12:28:42.855Z,66.06
2022-12-03T12:31:27.292Z,65.29
2022-12-03T12:34:16.953Z,65.59
2022-12-03T12:37:02.502Z,65.71
2022-12-03T12:39:51.088Z,65.46
2022-12-03T12:42:44.406Z,65.78
2022-12-03T12:45:29.960Z,65.68
2022-12-03T12:48:31.949Z,67.48
2022-12-03T12:51:25.221Z,67.74
2022-12-03T12:54:21.934Z,66.53
2022-12-03T12:57:10.933Z,66.42
2022-12-03T12:59:55.108Z,67.19
2022-12-03T13:03:00.935Z,68.20
2022-12-03T13:05:52.837Z,68.32
2022-12-03T13:08:53.862Z,68.54
2022-12-03T13:11:52.973Z,69.17
2022-12-03T13:14:41.215Z,69.73
2022-12-03T13:17:31.870Z,69.99
2022-12-03T13:20:32.939Z,69.89
2022-12-03T13:23:41.851Z,70.14
2022-12-03T13:26:54.006Z,70.12
2022-12-03T13:29:43.245Z,68.94
2022-12-03T13:32:29.945Z,68.88
2022-12-03T13:35:37.145Z,68.96
2022-12-03T13:38:24.858Z,69.95
2022-12-03T13:41:14.006Z,69.34
2022-12-03T13:43:56.270Z,70.18
2022-12-03T13:46:44.936Z,71.17
2022-12-03T13:49:30.222Z,71.49
2022-12-03T13:52:24.958Z,70.36
2022-12-03T13:55:11.283Z,71.54
2022-12-03T13:57:59.937Z,71.28
2022-12-03T14:00:42.250Z,71.77
2022-12-03T14:03:30.889Z,72.39
2022-12-03T14:06:20.355Z,72.17
2022-12-03T14:09:09.241Z,72.12
2022-12-03T14:12:09.841Z,71.36
2022-12-03T14:14:52.155Z,71.36
2022-12-03T14:17:46.004Z,71.64
2022-12-03T14:21:09.393Z,71.71
2022-12-03T14:23:50.992Z,72.09
2022-12-03T14:26:42.986Z,72.64
2022-12-03T14:29:37.857Z,72.57
2022-12-03T14:32:55.271Z,73.09
2022-12-03T14:35:39.942Z,73.60
2022-12-03T14:38:34.854Z,73.53
2022-12-03T14:41:42.845Z,73.76
2022-12-03T14:44:31.961Z,73.65
2022-12-03T14:47:23.927Z,73.53
2022-12-03T14:50:33.055Z,74.11
2022-12-03T14:53:44.237Z,74.05
2022-12-03T14:56:45.996Z,74.09
2022-12-03T14:59:28.295Z,74.71
2022-12-03T15:02:19.888Z,74.96
2022-12-03T15:05:02.412Z,75.25
2022-12-03T15:07:52.440Z,75.31
2022-12-03T15:10:34.288Z,75.40
2022-12-03T15:16:51.410Z,75.59
2022-12-03T15:19:33.889Z,76.38
2022-12-03T15:22:16.561Z,76.82
2022-12-03T15:25:06.029Z,77.28
2022-12-03T15:27:55.331Z,77.25
2022-12-03T15:30:39.032Z,77.43
2022-12-03T15:33:21.317Z,77.03
2022-12-03T15:36:21.011Z,75.82
2022-12-03T15:39:09.736Z,76.17
2022-12-03T15:41:59.365Z,77.36
2022-12-03T15:44:41.221Z,76.64
2022-12-03T15:47:29.963Z,76.18
2022-12-03T15:50:20.040Z,75.71
2022-12-03T15:53:03.989Z,76.69
2022-12-03T15:55:52.993Z,77.00
2022-12-03T15:58:36.780Z,76.62
2022-12-03T16:01:36.990Z,76.11
2022-12-03T16:04:26.844Z,75.59
2022-12-03T16:07:28.419Z,76.38
2022-12-03T16:10:18.523Z,77.28
2022-12-03T16:13:10.670Z,76.74
2022-12-03T16:16:19.294Z,76.35
2022-12-03T16:19:05.916Z,76.89
2022-12-03T16:21:55.030Z,76.06
2022-12-03T16:25:08.651Z,77.14
2022-12-03T16:28:37.825Z,76.90
2022-12-03T16:31:24.473Z,76.35
2022-12-03T16:34:22.497Z,77.33
2022-12-03T16:37:17.919Z,76.10
2022-12-03T16:40:10.913Z,76.80
2022-12-03T16:42:53.260Z,76.53
2022-12-03T16:45:53.004Z,76.54
2022-12-03T16:48:36.749Z,76.35
2022-12-03T16:51:29.488Z,76.69
2022-12-03T16:54:20.177Z,77.18
2022-12-03T16:57:21.623Z,76.53
2022-12-03T17:00:12.778Z,76.88
2022-12-03T17:02:56.339Z,76.50
2022-12-03T17:05:38.496Z,76.79
2022-12-03T17:08:27.971Z,76.97
2022-12-03T17:11:10.869Z,76.70
2022-12-03T17:14:01.271Z,76.56
2022-12-03T17:16:44.609Z,75.88
2022-12-03T17:19:33.977Z,77.07
2022-12-03T17:22:23.657Z,77.12
2022-12-03T17:25:07.351Z,76.10
2022-12-03T17:27:56.745Z,76.80
2022-12-03T17:30:40.293Z,76.76
2022-12-03T17:33:28.679Z,76.19
2022-12-03T17:36:12.104Z,76.00
2022-12-03T17:39:01.352Z,76.96
2022-12-03T17:41:43.956Z,75.78
2022-12-03T17:44:32.266Z,76.64
2022-12-03T17:47:14.997Z,76.94
2022-12-03T17:50:04.302Z,77.25
2022-12-03T17:52:45.847Z,76.70
2022-12-03T17:55:41.096Z,76.95
2022-12-03T17:58:34.038Z,77.54
2022-12-03T18:01:23.747Z,77.17
2022-12-03T18:04:25.366Z,76.95
2022-12-03T18:07:33.921Z,76.23
2022-12-03T18:10:17.191Z,77.65
2022-12-03T18:13:05.923Z,77.63
2022-12-03T18:16:00.799Z,76.88
2022-12-03T18:18:55.041Z,77.91
2022-12-03T18:21:39.357Z,77.30
2022-12-03T18:24:29.966Z,76.71
2022-12-03T18:27:12.363Z,77.80
2022-12-03T18:30:03.975Z,77.78
2022-12-03T18:32:47.025Z,77.54
2022-12-03T18:35:36.661Z,76.94
2022-12-03T18:38:30.947Z,77.43
2022-12-03T18:41:13.346Z,77.13
2022-12-03T18:44:01.913Z,76.79
2022-12-03T18:46:53.926Z,76.65
2022-12-03T18:49:36.432Z,75.88
2022-12-03T18:52:27.831Z,76.71
2022-12-03T18:55:10.669Z,76.91
2022-12-03T18:57:59.941Z,75.89
2022-12-03T19:00:51.282Z,76.45
2022-12-03T19:03:40.969Z,75.51
2022-12-03T19:06:30.108Z,76.99
2022-12-03T19:09:18.961Z,76.21
2022-12-03T19:12:14.433Z,77.04
2022-12-03T19:15:03.942Z,77.04
2022-12-03T19:17:59.311Z,77.41
2022-12-03T19:20:42.910Z,75.88
2022-12-03T19:23:25.239Z,76.81
2022-12-03T19:26:15.941Z,76.35
2022-12-03T19:28:58.343Z,77.95
2022-12-03T19:31:47.007Z,77.33
2022-12-03T19:34:29.291Z,76.95
2022-12-03T19:37:17.959Z,76.71
2022-12-03T19:40:00.332Z,76.94
2022-12-03T19:42:48.927Z,77.76
2022-12-03T19:45:31.157Z,77.39
2022-12-03T19:48:19.940Z,76.29
2022-12-03T19:51:26.511Z,77.06
2022-12-03T19:54:11.908Z,76.68
2022-12-03T19:57:00.932Z,77.51
2022-12-03T19:59:50.944Z,77.90
2022-12-03T20:02:33.286Z,77.26
2022-12-03T20:05:21.930Z,77.34
2022-12-03T20:08:04.820Z,77.91
2022-12-03T20:10:53.935Z,77.81
2022-12-03T20:13:36.642Z,76.67
2022-12-03T20:16:29.050Z,77.45
2022-12-03T20:19:20.873Z,77.60
2022-12-03T20:22:09.892Z,77.20
2022-12-03T20:24:58.866Z,77.05
2022-12-03T20:27:41.410Z,75.82
2022-12-03T20:30:29.912Z,77.26
2022-12-03T20:33:12.554Z,76.36
2022-12-03T20:36:04.877Z,76.24
2022-12-03T20:38:47.172Z,76.21
2022-12-03T20:41:35.949Z,76.94
2022-12-03T20:44:18.285Z,75.57
2022-12-03T20:47:06.937Z,77.01
2022-12-03T20:49:49.363Z,76.18
2022-12-03T20:52:37.937Z,75.42
2022-12-03T20:55:20.344Z,76.88
2022-12-03T20:58:08.907Z,75.97
2022-12-03T21:00:51.346Z,76.39
2022-12-03T21:03:39.852Z,75.84
2022-12-03T21:06:23.197Z,75.68
2022-12-03T21:09:14.929Z,75.11
2022-12-03T21:12:03.903Z,75.74
2022-12-03T21:14:46.262Z,75.74
2022-12-03T21:17:34.950Z,75.46
2022-12-03T21:20:21.025Z,75.08
2022-12-03T21:23:09.913Z,75.01
2022-12-03T21:25:52.090Z,75.16
2022-12-03T21:28:40.897Z,75.02
2022-12-03T21:31:26.807Z,75.60
2022-12-03T21:34:15.910Z,74.58
2022-12-03T21:37:04.880Z,75.50
2022-12-03T21:39:47.148Z,75.85
2022-12-03T21:42:37.185Z,76.22
2022-12-03T21:45:19.191Z,74.78
2022-12-03T21:48:07.914Z,76.27
2022-12-03T21:50:50.140Z,76.45
2022-12-03T21:53:43.613Z,76.06
2022-12-03T21:56:27.383Z,75.73
2022-12-03T21:59:15.918Z,75.94
2022-12-03T22:01:58.401Z,76.24
2022-12-03T22:04:47.901Z,75.58
2022-12-03T22:07:30.431Z,76.00
2022-12-03T22:10:19.878Z,75.50
2022-12-03T22:13:02.208Z,75.81
2022-12-03T22:15:50.890Z,74.68
2022-12-03T22:18:46.922Z,75.82
2022-12-03T22:21:29.179Z,75.90
2022-12-03T22:24:17.838Z,75.65
2022-12-03T22:27:00.104Z,75.68
2022-12-03T22:29:48.888Z,75.57
2022-12-03T22:32:37.204Z,75.64
2022-12-03T22:35:18.896Z,76.05
2022-12-03T22:38:07.935Z,76.12
2022-12-03T22:40:56.886Z,75.79
2022-12-03T22:43:39.295Z,75.75
2022-12-03T22:46:27.919Z,75.46
2022-12-03T22:49:16.889Z,75.78
2022-12-03T22:51:59.195Z,75.79
2022-12-03T22:54:47.897Z,77.15
2022-12-03T22:57:36.901Z,76.44
2022-12-03T23:00:33.363Z,77.05
2022-12-03T23:03:22.846Z,76.92
2022-12-03T23:06:11.933Z,77.92
2022-12-03T23:09:00.887Z,77.25
2022-12-03T23:11:52.169Z,77.12
2022-12-03T23:14:33.879Z,77.58
2022-12-03T23:17:28.859Z,77.31
2022-12-03T23:20:17.838Z,77.56
2022-12-03T23:23:01.172Z,77.72
2022-12-03T23:25:49.883Z,76.49
2022-12-03T23:28:33.092Z,77.32
2022-12-03T23:31:33.955Z,76.56
2022-12-03T23:34:16.138Z,77.24
2022-12-03T23:37:04.906Z,77.66
2022-12-03T23:39:47.158Z,77.19
2022-12-03T23:42:35.872Z,78.03
2022-12-03T23:45:18.153Z,77.27
2022-12-03T23:48:06.842Z,76.88
2022-12-03T23:50:49.143Z,76.32
2022-12-03T23:53:37.838Z,76.86
2022-12-03T23:56:33.895Z,78.63
2022-12-03T23:59:22.880Z,77.18
